createdAt,value
2023-03-14T00:01:27.447Z,10.60
2023-03-14T00:03:54.061Z,10.40
2023-03-14T00:06:21.491Z,10.40
2023-03-14T00:08:48.460Z,10.30
2023-03-14T00:11:21.002Z,10.20
2023-03-14T00:13:51.868Z,10.20
2023-03-14T00:16:19.130Z,10.20
2023-03-14T00:18:45.889Z,10.20
2023-03-14T00:21:12.921Z,10.20
2023-03-14T00:23:41.139Z,10.10
2023-03-14T00:26:13.704Z,10.10
2023-03-14T00:28:41.246Z,10.00
2023-03-14T00:31:10.211Z,10.00
2023-03-14T00:33:37.161Z,9.90
2023-03-14T00:36:13.131Z,9.90
2023-03-14T00:38:40.904Z,9.90
2023-03-14T00:41:15.880Z,9.90
2023-03-14T00:43:43.178Z,10.00
2023-03-14T00:46:10.574Z,10.00
2023-03-14T00:48:37.934Z,10.00
2023-03-14T00:51:05.881Z,10.10
2023-03-14T00:53:35.885Z,10.20
2023-03-14T00:56:07.579Z,10.20
2023-03-14T00:58:34.402Z,10.30
2023-03-14T01:01:10.378Z,10.30
2023-03-14T01:03:37.550Z,10.40
2023-03-14T01:06:16.277Z,10.40
2023-03-14T01:08:43.389Z,10.40
2023-03-14T01:11:16.243Z,10.50
2023-03-14T01:13:42.886Z,10.40
2023-03-14T01:16:11.750Z,10.30
2023-03-14T01:18:40.192Z,10.30
2023-03-14T01:21:19.708Z,10.30
2023-03-14T01:23:46.860Z,10.30
2023-03-14T01:26:16.144Z,10.40
2023-03-14T01:28:42.928Z,10.40
2023-03-14T01:31:11.824Z,10.40
2023-03-14T01:33:39.296Z,10.50
2023-03-14T01:36:07.143Z,10.50
2023-03-14T01:38:35.815Z,10.50
2023-03-14T01:41:04.182Z,10.30
2023-03-14T01:43:31.087Z,10.20
2023-03-14T01:46:15.796Z,10.20
2023-03-14T01:49:11.752Z,10.20
2023-03-14T01:51:43.895Z,10.20
2023-03-14T01:54:31.901Z,10.10
2023-03-14T01:57:31.866Z,10.10
2023-03-14T02:00:04.920Z,10.00
2023-03-14T02:02:32.096Z,10.00
2023-03-14T02:05:00.406Z,10.00
2023-03-14T02:07:36.392Z,10.00
2023-03-14T02:10:05.022Z,10.10
2023-03-14T02:12:32.510Z,10.10
2023-03-14T02:14:59.272Z,10.10
2023-03-14T02:17:26.314Z,10.10
2023-03-14T02:20:26.317Z,10.10
2023-03-14T02:22:53.306Z,10.10
2023-03-14T02:25:52.835Z,10.10
2023-03-14T02:28:19.721Z,10.10
2023-03-14T02:30:46.967Z,10.00
2023-03-14T02:33:22.006Z,10.00
2023-03-14T02:35:57.746Z,10.00
2023-03-14T02:38:56.243Z,10.00
2023-03-14T02:41:23.302Z,10.00
2023-03-14T02:43:50.150Z,10.00
2023-03-14T02:46:21.777Z,10.00
2023-03-14T02:49:10.879Z,10.00
2023-03-14T02:51:38.775Z,10.00
2023-03-14T02:54:05.461Z,10.00
2023-03-14T02:56:32.276Z,10.10
2023-03-14T02:58:59.036Z,10.00
2023-03-14T03:01:26.182Z,10.00
2023-03-14T03:03:52.847Z,10.00
2023-03-14T03:06:19.454Z,10.10
2023-03-14T03:08:46.109Z,10.10
2023-03-14T03:11:12.747Z,10.10
2023-03-14T03:13:39.408Z,10.10
2023-03-14T03:16:06.324Z,10.10
2023-03-14T03:18:33.004Z,10.10
2023-03-14T03:21:04.436Z,10.10
2023-03-14T03:23:31.284Z,10.10
2023-03-14T03:25:58.364Z,10.10
2023-03-14T03:28:25.019Z,10.20
2023-03-14T03:30:51.690Z,10.20
2023-03-14T03:33:18.339Z,10.10
2023-03-14T03:35:51.050Z,10.00
2023-03-14T03:38:18.077Z,10.10
2023-03-14T03:40:45.720Z,10.10
2023-03-14T03:43:12.333Z,10.00
2023-03-14T03:45:38.984Z,10.00
2023-03-14T03:48:05.815Z,9.90
2023-03-14T03:50:32.467Z,9.90
2023-03-14T03:52:59.118Z,9.90
2023-03-14T03:55:26.720Z,9.80
2023-03-14T03:57:53.470Z,9.80
2023-03-14T04:00:20.230Z,9.90
2023-03-14T04:02:46.990Z,9.80
2023-03-14T04:05:13.792Z,9.80
2023-03-14T04:07:40.364Z,9.90
2023-03-14T04:10:07.215Z,9.80
2023-03-14T04:12:34.992Z,9.80
2023-03-14T04:15:01.625Z,9.80
2023-03-14T04:17:28.262Z,9.80
2023-03-14T04:19:54.952Z,9.80
2023-03-14T04:22:21.841Z,9.80
2023-03-14T04:24:48.523Z,9.70
2023-03-14T04:27:15.699Z,9.80
2023-03-14T04:29:43.467Z,9.70
2023-03-14T04:32:10.076Z,9.70
2023-03-14T04:34:36.930Z,9.70
2023-03-14T04:37:03.828Z,9.70
2023-03-14T04:39:30.398Z,9.70
2023-03-14T04:41:57.093Z,9.70
2023-03-14T04:44:23.738Z,9.70
2023-03-14T04:46:50.358Z,9.70
2023-03-14T04:49:16.978Z,9.70
2023-03-14T04:51:43.592Z,9.70
2023-03-14T04:54:10.406Z,9.80
2023-03-14T04:56:37.916Z,9.70
2023-03-14T04:59:05.524Z,9.70
2023-03-14T05:01:32.331Z,9.60
2023-03-14T05:03:59.039Z,9.60
2023-03-14T05:06:25.622Z,9.60
2023-03-14T05:08:52.545Z,9.60
2023-03-14T05:11:19.199Z,9.60
2023-03-14T05:13:45.843Z,9.50
2023-03-14T05:16:12.565Z,9.50
2023-03-14T05:18:39.366Z,9.40
2023-03-14T05:21:06.350Z,9.40
2023-03-14T05:23:32.984Z,9.40
2023-03-14T05:25:59.606Z,9.40
2023-03-14T05:28:26.350Z,9.40
2023-03-14T05:30:53.106Z,9.50
2023-03-14T05:33:19.663Z,9.50
2023-03-14T05:35:46.313Z,9.50
2023-03-14T05:38:12.971Z,9.40
2023-03-14T05:40:39.710Z,9.40
2023-03-14T05:43:08.780Z,9.30
2023-03-14T05:45:36.300Z,9.20
2023-03-14T05:48:03.892Z,9.20
2023-03-14T05:50:30.513Z,9.10
2023-03-14T05:52:57.176Z,9.10
2023-03-14T05:55:23.909Z,9.00
2023-03-14T05:57:50.554Z,9.00
2023-03-14T06:00:17.771Z,9.00
2023-03-14T06:02:44.404Z,8.90
2023-03-14T06:05:11.030Z,8.90
2023-03-14T06:07:37.708Z,8.90
2023-03-14T06:10:04.868Z,8.80
2023-03-14T06:12:31.505Z,8.80
2023-03-14T06:14:58.127Z,8.70
2023-03-14T06:17:24.712Z,8.70
2023-03-14T06:19:51.347Z,8.70
2023-03-14T06:22:18.146Z,8.70
2023-03-14T06:24:44.847Z,8.70
2023-03-14T06:27:11.473Z,8.70
2023-03-14T06:29:38.136Z,8.60
2023-03-14T06:32:06.093Z,8.60
2023-03-14T06:34:32.733Z,8.60
2023-03-14T06:36:59.384Z,8.60
2023-03-14T06:39:26.051Z,8.70
2023-03-14T06:41:52.639Z,8.60
2023-03-14T06:44:19.332Z,8.70
2023-03-14T06:46:45.935Z,8.70
2023-03-14T06:49:12.526Z,8.70
2023-03-14T06:51:39.177Z,8.70
2023-03-14T06:54:05.972Z,8.60
2023-03-14T06:56:32.565Z,8.70
2023-03-14T06:58:59.248Z,8.70
2023-03-14T07:01:28.893Z,8.70
2023-03-14T07:03:55.734Z,8.70
2023-03-14T07:06:22.851Z,8.70
2023-03-14T07:08:49.461Z,8.80
2023-03-14T07:11:16.071Z,8.70
2023-03-14T07:13:42.822Z,8.70
2023-03-14T07:16:10.017Z,8.70
2023-03-14T07:18:38.221Z,8.80
2023-03-14T07:21:08.561Z,8.90
2023-03-14T07:23:35.716Z,8.80
2023-03-14T07:26:02.723Z,8.90
2023-03-14T07:28:29.315Z,9.00
2023-03-14T07:30:56.174Z,9.10
2023-03-14T07:33:22.891Z,9.20
2023-03-14T07:35:50.487Z,9.20
2023-03-14T07:38:17.955Z,9.30
2023-03-14T07:40:44.605Z,9.30
2023-03-14T07:43:11.290Z,9.40
2023-03-14T07:45:42.428Z,9.50
2023-03-14T07:48:09.706Z,9.50
2023-03-14T07:50:36.352Z,9.50
2023-03-14T07:53:03.044Z,9.50
2023-03-14T07:55:29.699Z,9.60
2023-03-14T07:57:56.284Z,9.60
2023-03-14T08:00:23.015Z,9.70
2023-03-14T08:02:49.626Z,9.70
2023-03-14T08:05:16.499Z,9.80
2023-03-14T08:07:43.086Z,9.90
2023-03-14T08:10:10.701Z,9.90
2023-03-14T08:12:37.302Z,9.90
2023-03-14T08:15:04.186Z,9.90
2023-03-14T08:17:30.781Z,9.90
2023-03-14T08:19:57.422Z,9.90
2023-03-14T08:22:24.008Z,10.00
2023-03-14T08:24:50.640Z,10.00
2023-03-14T08:27:17.245Z,10.00
2023-03-14T08:29:44.610Z,10.00
2023-03-14T08:32:11.303Z,10.10
2023-03-14T08:34:38.506Z,10.10
2023-03-14T08:37:13.654Z,10.20
2023-03-14T08:39:50.280Z,10.20
2023-03-14T08:42:16.943Z,10.20
2023-03-14T08:44:43.651Z,10.20
2023-03-14T08:47:10.559Z,10.20
2023-03-14T08:49:37.443Z,10.30
2023-03-14T08:52:05.342Z,10.20
2023-03-14T08:54:32.322Z,10.30
2023-03-14T08:56:59.135Z,10.30
2023-03-14T08:59:25.830Z,10.30
2023-03-14T09:01:52.727Z,10.40
2023-03-14T09:04:19.410Z,10.40
2023-03-14T09:06:46.152Z,10.50
2023-03-14T09:09:14.363Z,10.40
2023-03-14T09:11:41.357Z,10.40
2023-03-14T09:14:08.235Z,10.40
2023-03-14T09:16:35.011Z,10.30
2023-03-14T09:19:01.616Z,10.40
2023-03-14T09:21:28.404Z,10.50
2023-03-14T09:23:55.024Z,10.50
2023-03-14T09:26:21.704Z,10.50
2023-03-14T09:28:48.367Z,10.50
2023-03-14T09:31:15.733Z,10.60
2023-03-14T09:33:42.373Z,10.50
2023-03-14T09:36:09.369Z,10.50
2023-03-14T09:38:36.304Z,10.50
2023-03-14T09:41:13.007Z,10.50
2023-03-14T09:43:40.949Z,10.50
2023-03-14T09:46:12.004Z,10.50
2023-03-14T09:48:38.637Z,10.50
2023-03-14T09:51:18.147Z,10.40
2023-03-14T09:53:47.872Z,10.40
2023-03-14T09:56:19.811Z,10.40
2023-03-14T09:58:51.348Z,10.40
2023-03-14T10:01:23.260Z,10.40
2023-03-14T10:03:51.996Z,10.30
2023-03-14T10:06:18.707Z,10.20
2023-03-14T10:08:46.095Z,10.10
2023-03-14T10:11:19.562Z,10.10
2023-03-14T10:14:09.002Z,10.10
2023-03-14T10:16:43.584Z,10.10
2023-03-14T10:19:15.512Z,10.10
2023-03-14T10:21:44.230Z,9.80
2023-03-14T10:24:27.026Z,9.60
2023-03-14T10:26:55.309Z,9.50
2023-03-14T10:29:25.261Z,9.40
2023-03-14T10:32:00.717Z,9.40
2023-03-14T10:34:30.621Z,9.20
2023-03-14T10:37:01.759Z,9.10
2023-03-14T10:39:33.103Z,9.00
2023-03-14T10:42:06.185Z,9.00
2023-03-14T10:44:35.294Z,8.90
2023-03-14T10:47:05.030Z,8.90
2023-03-14T10:49:34.507Z,8.80
2023-03-14T10:52:35.653Z,8.90
2023-03-14T10:55:12.633Z,9.00
2023-03-14T10:57:43.108Z,9.00
2023-03-14T11:00:21.325Z,9.10
2023-03-14T11:02:59.889Z,9.10
2023-03-14T11:06:02.125Z,9.10
2023-03-14T11:08:54.556Z,9.10
2023-03-14T11:11:26.186Z,9.10
2023-03-14T11:14:14.592Z,9.10
2023-03-14T11:17:02.323Z,9.00
2023-03-14T11:19:43.614Z,9.00
2023-03-14T11:22:23.979Z,9.10
2023-03-14T11:25:06.495Z,9.10
2023-03-14T11:27:42.320Z,8.90
2023-03-14T11:30:20.926Z,8.90
2023-03-14T11:33:10.370Z,8.90
2023-03-14T11:35:53.432Z,9.00
2023-03-14T11:38:30.558Z,8.90
2023-03-14T11:40:59.648Z,8.70
2023-03-14T11:43:41.024Z,8.70
2023-03-14T11:46:19.137Z,8.50
2023-03-14T11:48:59.248Z,8.60
2023-03-14T11:51:44.652Z,8.60
2023-03-14T11:54:37.626Z,8.50
2023-03-14T11:57:23.122Z,8.50
2023-03-14T12:00:18.120Z,8.50
2023-03-14T12:03:05.921Z,8.50
2023-03-14T12:05:51.386Z,8.50
2023-03-14T12:08:23.404Z,8.60
2023-03-14T12:10:55.092Z,8.70
2023-03-14T12:13:22.180Z,8.70
2023-03-14T12:16:01.402Z,8.80
2023-03-14T12:18:34.296Z,8.90
2023-03-14T12:21:06.851Z,9.00
2023-03-14T12:23:58.190Z,8.90
2023-03-14T12:26:27.557Z,8.70
2023-03-14T12:29:18.060Z,8.80
2023-03-14T12:31:46.501Z,8.80
2023-03-14T12:34:13.192Z,8.80
2023-03-14T12:36:49.531Z,8.80
2023-03-14T12:39:37.704Z,8.70
2023-03-14T12:42:42.447Z,8.60
2023-03-14T12:45:31.168Z,8.70
2023-03-14T12:48:26.461Z,8.60
2023-03-14T12:51:13.804Z,8.70
2023-03-14T12:53:52.438Z,8.70
2023-03-14T12:56:22.089Z,8.70
2023-03-14T12:59:17.613Z,8.60
2023-03-14T13:02:07.159Z,8.60
2023-03-14T13:04:39.679Z,8.60
2023-03-14T13:07:13.509Z,8.50
2023-03-14T13:10:02.207Z,8.50
2023-03-14T13:12:37.611Z,8.50
2023-03-14T13:15:15.155Z,8.50
2023-03-14T13:17:42.571Z,8.60
2023-03-14T13:20:25.630Z,8.60
2023-03-14T13:22:52.314Z,8.60
2023-03-14T13:25:21.858Z,8.70
2023-03-14T13:27:48.799Z,8.80
2023-03-14T13:30:22.871Z,8.80
2023-03-14T13:32:51.216Z,9.00
2023-03-14T13:35:22.274Z,9.10
2023-03-14T13:38:10.168Z,9.20
2023-03-14T13:40:37.606Z,9.30
2023-03-14T13:43:32.091Z,9.30
2023-03-14T13:46:22.000Z,9.30
2023-03-14T13:48:57.181Z,9.30
2023-03-14T13:51:25.777Z,9.20
2023-03-14T13:53:56.526Z,9.20
2023-03-14T13:56:27.093Z,9.20
2023-03-14T13:58:54.033Z,9.20
2023-03-14T14:01:24.169Z,9.30
2023-03-14T14:03:53.110Z,9.30
2023-03-14T14:06:39.529Z,9.20
2023-03-14T14:09:20.470Z,9.20
2023-03-14T14:12:14.327Z,9.30
2023-03-14T14:14:54.318Z,9.40
2023-03-14T14:17:34.733Z,9.40
2023-03-14T14:20:06.232Z,9.40
2023-03-14T14:22:33.627Z,9.40
2023-03-14T14:25:01.553Z,9.20
2023-03-14T14:27:35.918Z,9.20
2023-03-14T14:30:24.440Z,9.20
2023-03-14T14:32:52.220Z,9.10
2023-03-14T14:35:36.058Z,9.00
2023-03-14T14:38:13.805Z,9.10
2023-03-14T14:40:46.582Z,9.20
2023-03-14T14:43:22.084Z,9.30
2023-03-14T14:45:52.117Z,9.30
2023-03-14T14:48:22.588Z,9.40
2023-03-14T14:50:50.357Z,9.30
2023-03-14T14:53:28.356Z,9.40
2023-03-14T14:55:57.948Z,9.40
2023-03-14T14:58:40.676Z,9.40
2023-03-14T15:01:23.922Z,9.50
2023-03-14T15:03:54.686Z,9.60
2023-03-14T15:06:22.098Z,9.50
2023-03-14T15:08:49.850Z,9.50
2023-03-14T15:11:23.509Z,9.60
2023-03-14T15:13:51.103Z,9.40
2023-03-14T15:16:21.500Z,9.30
2023-03-14T15:18:54.113Z,9.40
2023-03-14T15:21:20.687Z,9.30
2023-03-14T15:23:47.256Z,9.10
2023-03-14T15:26:17.358Z,8.80
2023-03-14T15:28:43.966Z,8.80
2023-03-14T15:31:12.046Z,8.90
2023-03-14T15:33:38.810Z,8.90
2023-03-14T15:36:07.767Z,8.80
2023-03-14T15:38:34.499Z,8.90
2023-03-14T15:41:01.106Z,9.00
2023-03-14T15:43:27.958Z,9.00
2023-03-14T15:45:54.598Z,9.10
2023-03-14T15:48:22.522Z,9.10
2023-03-14T15:50:49.330Z,9.20
2023-03-14T15:53:16.106Z,9.70
2023-03-14T15:55:43.014Z,9.50
2023-03-14T15:58:27.998Z,9.40
2023-03-14T16:00:54.558Z,9.30
2023-03-14T16:03:21.223Z,9.20
2023-03-14T16:05:47.910Z,9.10
2023-03-14T16:08:14.457Z,9.00
2023-03-14T16:10:42.071Z,9.00
2023-03-14T16:13:08.944Z,8.70
2023-03-14T16:15:38.321Z,8.60
2023-03-14T16:18:20.688Z,8.40
2023-03-14T16:21:09.592Z,8.20
2023-03-14T16:23:36.874Z,7.80
2023-03-14T16:26:08.628Z,7.50
2023-03-14T16:28:35.789Z,7.20
2023-03-14T16:31:10.032Z,7.20
2023-03-14T16:33:38.673Z,7.10
2023-03-14T16:36:08.623Z,7.10
2023-03-14T16:38:36.898Z,7.20
2023-03-14T16:41:23.881Z,7.30
2023-03-14T16:43:52.278Z,7.40
2023-03-14T16:46:19.898Z,7.30
2023-03-14T16:48:47.047Z,7.20
2023-03-14T16:51:14.752Z,7.30
2023-03-14T16:53:41.394Z,7.40
2023-03-14T16:56:08.723Z,7.40
2023-03-14T16:58:36.032Z,7.30
2023-03-14T17:01:11.427Z,7.40
2023-03-14T17:03:40.118Z,7.50
2023-03-14T17:06:07.548Z,7.50
2023-03-14T17:08:34.367Z,7.50
2023-03-14T17:11:01.006Z,7.50
2023-03-14T17:13:27.738Z,7.60
2023-03-14T17:15:59.126Z,7.60
2023-03-14T17:18:27.650Z,7.60
2023-03-14T17:20:55.765Z,7.70
2023-03-14T17:23:24.293Z,7.70
2023-03-14T17:25:51.407Z,7.70
2023-03-14T17:28:22.191Z,7.80
2023-03-14T17:30:49.527Z,7.80
2023-03-14T17:33:20.261Z,7.90
2023-03-14T17:35:46.944Z,7.80
2023-03-14T17:38:13.785Z,7.70
2023-03-14T17:40:40.449Z,7.60
2023-03-14T17:43:07.062Z,7.70
2023-03-14T17:45:33.733Z,7.70
2023-03-14T17:48:00.379Z,7.80
2023-03-14T17:50:30.328Z,7.80
2023-03-14T17:52:56.968Z,7.80
2023-03-14T17:55:23.566Z,7.70
2023-03-14T17:57:50.391Z,7.70
2023-03-14T18:00:17.559Z,7.80
2023-03-14T18:02:44.482Z,7.80
2023-03-14T18:05:11.332Z,7.80
2023-03-14T18:07:38.629Z,8.00
2023-03-14T18:10:06.432Z,7.90
2023-03-14T18:12:33.318Z,8.00
2023-03-14T18:15:00.058Z,8.00
2023-03-14T18:17:26.831Z,7.90
2023-03-14T18:19:55.688Z,7.70
2023-03-14T18:22:22.289Z,7.60
2023-03-14T18:24:49.173Z,7.60
2023-03-14T18:27:15.797Z,7.60
2023-03-14T18:29:42.681Z,7.60
2023-03-14T18:32:10.581Z,7.60
2023-03-14T18:34:37.501Z,7.60
2023-03-14T18:37:04.265Z,7.50
2023-03-14T18:39:31.237Z,7.50
2023-03-14T18:41:57.922Z,7.30
2023-03-14T18:44:24.523Z,7.30
2023-03-14T18:46:51.240Z,7.30
2023-03-14T18:49:19.094Z,7.40
2023-03-14T18:51:47.016Z,7.40
2023-03-14T18:54:13.849Z,7.50
2023-03-14T18:56:41.431Z,7.50
2023-03-14T18:59:09.156Z,7.50
2023-03-14T19:01:36.722Z,7.40
2023-03-14T19:04:03.959Z,7.40
2023-03-14T19:06:33.033Z,7.50
2023-03-14T19:09:01.001Z,7.50
2023-03-14T19:11:28.284Z,7.30
2023-03-14T19:13:55.100Z,7.30
2023-03-14T19:16:25.211Z,7.20
2023-03-14T19:18:55.641Z,7.10
2023-03-14T19:21:30.865Z,7.10
2023-03-14T19:23:57.809Z,7.10
2023-03-14T19:26:24.623Z,7.20
2023-03-14T19:28:55.115Z,7.20
2023-03-14T19:31:21.898Z,7.20
2023-03-14T19:33:48.998Z,7.20
2023-03-14T19:36:28.417Z,7.30
2023-03-14T19:38:55.670Z,7.30
2023-03-14T19:41:24.786Z,7.40
2023-03-14T19:43:52.247Z,7.40
2023-03-14T19:46:19.299Z,7.30
2023-03-14T19:48:46.098Z,7.40
2023-03-14T19:51:16.749Z,7.40
2023-03-14T19:53:44.442Z,7.40
2023-03-14T19:56:11.457Z,7.40
2023-03-14T19:58:39.881Z,7.40
2023-03-14T20:01:08.053Z,7.40
2023-03-14T20:03:36.438Z,7.40
2023-03-14T20:06:07.797Z,7.40
2023-03-14T20:08:34.656Z,7.50
2023-03-14T20:11:08.382Z,7.40
2023-03-14T20:13:35.432Z,7.40
2023-03-14T20:16:06.829Z,7.40
2023-03-14T20:18:33.672Z,7.40
2023-03-14T20:21:00.316Z,7.30
2023-03-14T20:23:27.742Z,7.20
2023-03-14T20:25:57.055Z,7.10
2023-03-14T20:28:23.925Z,7.10
2023-03-14T20:30:51.076Z,7.10
2023-03-14T20:33:19.691Z,7.20
2023-03-14T20:35:57.232Z,7.30
2023-03-14T20:38:26.278Z,7.10
2023-03-14T20:40:57.160Z,7.10
2023-03-14T20:43:25.109Z,7.10
2023-03-14T20:45:53.602Z,7.20
2023-03-14T20:48:20.654Z,7.10
2023-03-14T20:50:48.063Z,7.10
2023-03-14T20:53:14.750Z,7.10
2023-03-14T20:55:41.395Z,7.10
2023-03-14T20:58:08.253Z,7.10
2023-03-14T21:00:34.920Z,7.10
2023-03-14T21:03:01.665Z,7.00
2023-03-14T21:05:28.417Z,7.00
2023-03-14T21:07:55.073Z,7.00
2023-03-14T21:10:21.654Z,7.00
2023-03-14T21:12:48.328Z,7.10
2023-03-14T21:15:14.944Z,7.10
2023-03-14T21:17:42.094Z,7.00
2023-03-14T21:20:16.574Z,7.00
2023-03-14T21:22:43.154Z,7.00
2023-03-14T21:25:09.973Z,7.00
2023-03-14T21:27:41.349Z,6.90
2023-03-14T21:30:09.992Z,7.00
2023-03-14T21:32:36.648Z,6.90
2023-03-14T21:35:03.406Z,6.90
2023-03-14T21:37:30.088Z,6.90
2023-03-14T21:39:56.692Z,7.00
2023-03-14T21:42:23.973Z,7.00
2023-03-14T21:44:52.043Z,7.10
2023-03-14T21:47:19.889Z,7.10
2023-03-14T21:49:47.071Z,7.10
2023-03-14T21:52:14.337Z,7.20
2023-03-14T21:54:44.408Z,7.20
2023-03-14T21:57:11.849Z,7.30
2023-03-14T21:59:38.777Z,7.20
2023-03-14T22:02:11.931Z,7.20
2023-03-14T22:04:38.752Z,7.20
2023-03-14T22:07:08.598Z,7.30
2023-03-14T22:09:35.742Z,7.30
2023-03-14T22:12:02.406Z,7.20
2023-03-14T22:14:29.057Z,7.20
2023-03-14T22:16:55.946Z,7.20
2023-03-14T22:19:22.608Z,7.20
2023-03-14T22:21:49.388Z,7.10
2023-03-14T22:24:16.191Z,7.00
2023-03-14T22:26:42.905Z,6.90
2023-03-14T22:29:09.716Z,6.80
2023-03-14T22:31:36.777Z,6.60
2023-03-14T22:34:03.661Z,6.40
2023-03-14T22:36:30.565Z,6.30
2023-03-14T22:38:58.279Z,6.20
2023-03-14T22:41:24.913Z,6.10
2023-03-14T22:43:51.549Z,6.10
2023-03-14T22:46:18.363Z,6.10
2023-03-14T22:48:44.997Z,6.00
2023-03-14T22:51:13.379Z,6.00
2023-03-14T22:53:40.156Z,6.00
2023-03-14T22:56:08.384Z,5.90
2023-03-14T22:58:35.832Z,5.80
2023-03-14T23:01:02.645Z,5.80
2023-03-14T23:03:29.351Z,5.70
2023-03-14T23:05:55.976Z,5.80
2023-03-14T23:08:23.165Z,5.80
2023-03-14T23:10:49.795Z,5.80
2023-03-14T23:13:16.411Z,5.80
2023-03-14T23:15:43.549Z,5.90
2023-03-14T23:18:12.197Z,5.90
2023-03-14T23:20:38.912Z,5.90
2023-03-14T23:23:08.287Z,5.90
2023-03-14T23:25:44.864Z,6.00
2023-03-14T23:28:19.048Z,6.00
2023-03-14T23:30:45.757Z,5.90
2023-03-14T23:33:12.358Z,5.90
2023-03-14T23:35:38.985Z,5.80
2023-03-14T23:38:05.638Z,5.80
2023-03-14T23:40:32.304Z,5.70
2023-03-14T23:42:58.936Z,5.70
2023-03-14T23:45:25.577Z,5.60
2023-03-14T23:47:52.213Z,5.50
2023-03-14T23:50:18.834Z,5.40
2023-03-14T23:52:45.694Z,5.40
2023-03-14T23:55:12.299Z,5.40
2023-03-14T23:57:38.913Z,5.20
